Terminal Aerodrome Forecast
Issued by NWS

Home | Current Version | Previous Version | Text Only | Print | Product List | Glossary On
Versions: 1 2 3 4 5 6 7 8 9 10 11 12 13 14 15 16 17 18 19 20 21 22
000
FTUS43 KGRR 220500 RRA
TAFJXN
TAF
KJXN 220543Z 2206/2306 00000KT 4SM BR BKN020
     FM220900 00000KT 2SM BR OVC015
     FM221100 00000KT 1/4SM FG OVC001
     FM221400 14003KT 2SM BR BKN070
     FM221700 VRB03KT 6SM HZ BKN050 BKN250=

USA.gov is the U.S. government's official web portal to all federal, state and local government web resources and services.